Flugwetter Haslital by BIRDWING.ch
alle Angaben ohne Gewähr
code & design by arbyte.ch


Planplatten 2245m
31.05.20  04:3010|16  WSW2.7°C80%
31.05.20  04:1511|17  SSW2.7°C77%
31.05.20  04:0010|16  S2.7°C77%
31.05.20  03:306|13  SO1.5°C88%
31.05.20  03:006|9  ONO1.0°C91%
➜ Details Wind Planplatten

Meiringen 589m
31.05.20  04:302|4  ONO6.0°C87%
31.05.20  04:202|3  SSO7.7°C80%
31.05.20  04:101|3  OSO8.0°C79%
31.05.20  03:505|9  OSO8.1°C78%
31.05.20  03:203|5  SO9.4°C71%

Flugplatz Unterbach 577m
31.05.20  04:2013|13  O8.0°C63%
31.05.20  03:5013|13  O9.0°C56%
31.05.20  03:2011|11  O9.0°C56%
31.05.20  02:2011|11  O9.0°C56%

Brienz 567m
31.05.20  04:307|10  OSO
31.05.20  04:208|12  O
31.05.20  04:105|7  OSO
31.05.20  03:507|10  SSO
31.05.20  03:203|5  OSO

Gütsch ob Andermatt 2283m
31.05.20  04:306|10  S0.9°C74%
31.05.20  04:208|13  SSO1.4°C71%
31.05.20  04:108|12  OSO1.3°C71%
31.05.20  03:5010|16  OSO1.3°C73%
31.05.20  03:2022|25  O0.4°C81%

Höhematte Metropole 566m
31.05.20  04:387|9  OSO9.5°C71%
31.05.20  04:287|8  OSO9.9°C69%
31.05.20  04:186|9  OSO10.4°C68%
31.05.20  03:584|8  SO9.9°C68%
31.05.20  03:388|9  SO10.3°C67%

Niederhorn 1950m
31.05.20  04:384|14  W3.8°C85%
31.05.20  04:2814|17  WSW4.6°C85%
31.05.20  04:1813|15  WSW4.4°C86%
31.05.20  03:588|10  SO2.8°C90%
31.05.20  03:387|10  SO2.8°C89%

. . . . . . . . .

Bänzlauistock 2528m
31.05.20  04:3012|21  SSO
31.05.20  04:0015|20  SSO
31.05.20  03:3017|22  SSO
31.05.20  03:0015|20  SO
31.05.20  02:3013|19  SO

Sidelhorn 2733m
31.05.20  04:3014|20  SW
31.05.20  04:0017|22  SW
31.05.20  03:3018|24  SW
31.05.20  03:0017|21  SW
31.05.20  02:3017|21  SSW

Brienzer Rothorn 2348m
31.05.20  04:3022|28  W
31.05.20  04:0019|26  W
31.05.20  03:3017|22  WSW
31.05.20  03:009|16  SSW
31.05.20  02:306|11  S

Altdorf 438m
31.05.20  04:305|6  SO7.8°C84%
31.05.20  04:203|4  S8.0°C83%
31.05.20  04:102|3  SSO9.0°C78%
31.05.20  03:500|3  N8.4°C81%
31.05.20  03:201|2  W10.2°C72%

Flugplatz Buochs 449m
31.05.20  04:205|5  W9.0°C56%
31.05.20  03:507|7  W9.0°C56%
31.05.20  03:205|5  W10.0°C50%
31.05.20  02:207|7  SW10.0°C60%

Flugplatz Alpnach 445m
31.05.20  04:204|4  N7.0°C71%
31.05.20  03:504|4  N8.0°C63%
31.05.20  03:204|4  S8.0°C63%
31.05.20  02:200|0  N10.0°C60%

Chasseral 1599m
31.05.20  04:3042|49  O3.3°C72%
31.05.20  04:2043|51  O3.4°C73%
31.05.20  04:1044|52  O3.5°C72%
31.05.20  03:5043|52  O3.5°C73%
31.05.20  03:2046|53  O3.5°C80%

Eggishorn 2893m
31.05.20  04:307|11  NNW-2.7°C79%
31.05.20  04:205|12  N-2.4°C74%
31.05.20  04:105|9  WNW-2.7°C86%
31.05.20  03:507|10  W-1.7°C86%
31.05.20  03:203|5  WSW-3.8°C90%

Giswil 471m
31.05.20  04:304|5  W5.3°C93%
31.05.20  04:203|5  W5.2°C94%
31.05.20  04:104|5  WNW5.3°C92%
31.05.20  03:503|5  SSW6.3°C88%
31.05.20  03:202|3  WSW6.3°C89%

Glarus 517m
31.05.20  04:302|4  NW8.2°C79%
31.05.20  04:202|3  S8.7°C76%
31.05.20  04:101|3  O8.6°C77%
31.05.20  03:503|5  ONO8.2°C79%
31.05.20  03:201|2  WNW9.6°C72%

Gornergrat 3129m
31.05.20  04:307|10  SSO-3.4°C88%
31.05.20  04:207|12  S-3.3°C87%
31.05.20  04:109|14  W-3.2°C75%
31.05.20  03:503|7  S-3.2°C89%
31.05.20  03:204|8  S-2.9°C84%

Grimsel Hospiz 1980m
31.05.20  04:3012|16  WSW3.2°C74%
31.05.20  04:2013|19  WSW3.8°C69%
31.05.20  04:1012|14  SW2.8°C77%
31.05.20  03:509|13  SW3.2°C74%
31.05.20  03:2011|16  SW2.6°C84%

Jungfraujoch 3580m
31.05.20  04:3013|19  N-6.6°C60%
31.05.20  04:2015|19  N-6.7°C64%
31.05.20  04:1013|18  N-6.7°C63%
31.05.20  03:5012|16  N-7.0°C68%
31.05.20  03:2010|15  N-7.2°C69%

Luzern 454m
31.05.20  04:305|10  W10.2°C67%
31.05.20  04:206|10  W9.6°C70%
31.05.20  04:107|11  W9.8°C70%
31.05.20  03:507|12  W10.3°C68%
31.05.20  03:207|12  W10.5°C67%

Le Moléson 1974m
31.05.20  04:3013|29  WSW4.2°C81%
31.05.20  04:2013|23  WSW4.3°C77%
31.05.20  04:1013|27  WSW4.3°C76%
31.05.20  03:509|19  WSW4.3°C83%
31.05.20  03:2010|19  WSW3.8°C94%

Napf 1404m
31.05.20  04:3014|26  ONO4.1°C86%
31.05.20  04:2015|27  ONO4.4°C82%
31.05.20  04:1014|26  ONO4.1°C84%
31.05.20  03:5017|27  ONO4.6°C82%
31.05.20  03:2019|32  ONO4.7°C82%

Säntis 2502m
31.05.20  04:3010|17  W-1.3°C81%
31.05.20  04:208|15  W-1.5°C82%
31.05.20  04:108|16  W-1.4°C81%
31.05.20  03:5015|18  W-1.3°C82%
31.05.20  03:2012|17  WSW-1.5°C84%

Stockhorn 2190m
31.05.20  03:3013|21  WSW
31.05.20  03:008|15  WSW
31.05.20  02:308|14  WSW

Thun 570m
31.05.20  04:304|6  WSW5.3°C89%
31.05.20  04:203|4  NW5.9°C88%
31.05.20  04:101|4  W5.8°C90%
31.05.20  03:503|4  SW6.1°C89%
31.05.20  03:202|4  SW6.7°C86%

Titlis 3040m
31.05.20  04:3022|34  WSW-3.9°C93%
31.05.20  04:2026|33  WSW-3.8°C90%
31.05.20  04:1027|39  WSW-3.8°C88%
31.05.20  03:5026|32  WSW-3.6°C84%
31.05.20  03:2026|34  WSW-3.5°C80%


QNH Druckwerte vom 31.05.2020 04:30
Interlaken1017.4 hPa
Zürich (SMA)1018.1 hPa
Acquarossa / Comprovasco1017.7 hPa
Locarno/Monti1017.3 hPa
Genève-Cointrin1017.2 hPa

Δ Comprovasco - Interlaken in hPa
31.05.20  04:301017.7 - 1017.4 =0.3
31.05.20  04:201017.7 - 1017.4 =0.3
31.05.20  04:001017.7 - 1017.6 =0.1
31.05.20  03:201017.7 - 1017.6 =0.1
31.05.20  02:201017.7 - 1018.1 =-0.4

Δ Locarno - Zürich in hPa
31.05.20  04:301017.3 - 1018.1 =-0.8
31.05.20  04:201017.3 - 1018.1 =-0.8
31.05.20  04:001017.4 - 1018.2 =-0.8
31.05.20  03:201017.5 - 1018.4 =-0.9
31.05.20  02:201017.4 - 1018.6 =-1.2

Δ Genf - Bodensee in hPa
31.05.20  04:301017.2 - 1018.5 =-1.3
31.05.20  04:201017.3 - 1018.5 =-1.2
31.05.20  04:001017.4 - 1018.7 =-1.3
31.05.20  03:201017.4 - 1018.7 =-1.3
31.05.20  02:201017.5 - 1018.9 =-1.4

Temp Meiringen - Planplatten in °C/100m
31.05.20  04:306.0 - 2.7 = 3.30.20
31.05.20  04:008.2 - 2.3 = 5.90.36
31.05.20  03:209.4 - 1.0 = 8.40.51

Temp Lehn - Niederhorn in °C/100m
31.05.20  04:3810.0 - 3.8 = 6.20.45
31.05.20  04:089.9 - 2.6 = 7.30.53
31.05.20  03:3810.4 - 2.8 = 7.60.55

Temp Luzern - Pilatus in °C/100m
31.05.20  04:3010.2 - 2.4 = 7.80.47
31.05.20  04:009.9 - 1.6 = 8.30.50
31.05.20  03:2010.5 - 1.9 = 8.60.52